Time;durP1;ratioP1;P1;durP2;ratioP2;P2;SDS_P1;SDS_P2;PMS_P1;PMS_P2;Temp;Humidity;BMP_temperature;BMP_pressure;BME280_temperature;BME280_humidity;BME280_pressure;Samples;Min_cycle;Max_cycle;Signal;HPM_P1;HPM_P2
2022/12/17 13:06:35;;;;;;;;;;;;;;;7.55;100.00;100712.72;5036617;28;19948;-87
2022/12/17 13:09:25;;;;;;;;;;;;;;;7.46;100.00;100714.38;5009339;28;19921;-88
2022/12/17 13:12:03;;;;;;;;;;;;;;;7.42;100.00;100718.28;5021670;28;19921;-85
2022/12/17 13:14:28;;;;;;;;;;;;;;;7.26;100.00;100712.69;5041259;28;19925;-85
2022/12/17 13:16:56;;;;;;;;;;;;;;;7.31;100.00;100718.38;5037823;28;19947;-84
2022/12/17 13:19:34;;;;;;;;;;;;;;;7.36;100.00;100707.44;5002119;28;19929;-85
2022/12/17 13:22:15;;;;;;;;;;;;;;;7.34;100.00;100719.91;5019680;28;19932;-82
2022/12/17 13:24:44;;;;;;;;;;;;;;;7.51;100.00;100717.44;5002860;28;19971;-87
2022/12/17 13:27:29;;;;;;;;;;;;;;;7.39;100.00;100718.53;5035184;28;19925;-85
2022/12/17 13:30:15;;;;;;;;;;;;;;;7.32;100.00;100722.69;5015991;28;19933;-83
2022/12/17 13:32:46;;;;;;;;;;;;;;;7.27;100.00;100725.72;5016044;28;20012;-84
2022/12/17 13:35:30;;;;;;;;;;;;;;;7.18;100.00;100731.00;5034259;28;19921;-85
2022/12/17 13:38:02;;;;;;;;;;;;;;;7.48;100.00;100723.00;5034897;28;19928;-84
2022/12/17 13:40:38;;;;;;;;;;;;;;;7.56;100.00;100730.19;5018349;28;20012;-84
2022/12/17 13:43:03;;;;;;;;;;;;;;;7.52;100.00;100745.50;5014549;28;19921;-84
2022/12/17 13:45:31;;;;;;;;;;;;;;;7.50;100.00;100750.06;4999113;28;19924;-84
2022/12/17 13:47:57;;;;;;;;;;;;;;;7.65;100.00;100753.97;5017792;28;19927;-84
2022/12/17 13:50:29;;;;;;;;;;;;;;;7.74;100.00;100755.78;5001518;28;19917;-84
2022/12/17 13:52:55;;;;;;;;;;;;;;;7.75;100.00;100757.44;4998746;28;19927;-83
2022/12/17 13:55:25;;;;;;;;;;;;;;;7.71;100.00;100752.56;5017716;28;19917;-86
2022/12/17 13:57:51;;;;;;;;;;;;;;;7.62;100.00;100748.13;4998585;28;19926;-88
2022/12/17 14:00:24;;;;;;;;;;;;;;;7.55;100.00;100754.94;5021290;28;19925;-87
2022/12/17 14:02:50;;;;;;;;;;;;;;;7.52;100.00;100756.03;5037006;28;19937;-88
2022/12/17 14:05:29;;;;;;;;;;;;;;;7.58;100.00;100754.66;5014253;28;19922;-86
2022/12/17 14:08:04;;;;;;;;;;;;;;;7.65;100.00;100751.34;5003962;28;19921;-88
2022/12/17 14:10:30;;;;;;;;;;;;;;;7.85;100.00;100746.91;5005981;28;19926;-87
2022/12/17 14:13:11;;;;;;;;;;;;;;;7.97;100.00;100755.50;4991641;28;19922;-89
2022/12/17 14:15:37;;;;;;;;;;;;;;;7.96;100.00;100761.72;5014448;28;20025;-88
2022/12/17 14:18:20;;;;;;;;;;;;;;;7.90;100.00;100764.94;5019702;28;19921;-85
2022/12/17 14:20:48;;;;;;;;;;;;;;;7.93;100.00;100770.75;5003197;28;19921;-88
2022/12/17 14:23:19;;;;;;;;;;;;;;;7.91;100.00;100767.44;4987337;28;19917;-88
2022/12/17 14:25:44;;;;;;;;;;;;;;;7.97;100.00;100776.59;5018789;28;20012;-86
2022/12/17 14:28:23;;;;;;;;;;;;;;;7.82;100.00;100783.28;5018334;28;19976;-88
2022/12/17 14:31:02;;;;;;;;;;;;;;;7.79;100.00;100785.19;5001076;28;19921;-86
2022/12/17 14:33:28;;;;;;;;;;;;;;;7.58;100.00;100791.56;5000207;28;19921;-85
2022/12/17 14:35:56;;;;;;;;;;;;;;;7.49;100.00;100797.66;5000547;28;19972;-86
2022/12/17 14:38:22;;;;;;;;;;;;;;;7.67;100.00;100802.13;5001340;28;19922;-86
2022/12/17 14:40:47;;;;;;;;;;;;;;;7.70;100.00;100807.13;5000857;28;19929;-87
2022/12/17 14:43:13;;;;;;;;;;;;;;;7.63;100.00;100811.28;5018793;28;20005;-86
2022/12/17 14:46:19;;;;;;;;;;;;;;;7.67;100.00;100823.25;5018572;28;19918;-86
2022/12/17 14:49:14;;;;;;;;;;;;;;;7.68;100.00;100826.72;5018057;28;20016;-87
2022/12/17 14:51:22;;;;;;;;;;;;;;;7.46;100.00;100840.09;5009630;28;19921;-85
2022/12/17 14:53:48;;;;;;;;;;;;;;;7.39;100.00;100839.00;5018687;28;20310;-85
2022/12/17 14:56:22;;;;;;;;;;;;;;;7.61;100.00;100844.88;5001424;28;19929;-85
2022/12/17 14:58:48;;;;;;;;;;;;;;;7.60;100.00;100852.94;5002987;28;20408;-86
2022/12/17 15:01:14;;;;;;;;;;;;;;;7.34;100.00;100854.38;4990775;28;19996;-84
2022/12/17 15:03:40;;;;;;;;;;;;;;;7.43;100.00;100864.94;5030503;28;19921;-86
2022/12/17 15:06:08;;;;;;;;;;;;;;;7.50;100.00;100865.25;5037758;28;20373;-85
2022/12/17 15:08:40;;;;;;;;;;;;;;;7.28;100.00;100874.19;5033059;28;19921;-83
2022/12/17 15:11:06;;;;;;;;;;;;;;;7.19;100.00;100878.44;5018423;28;19922;-87
2022/12/17 15:13:32;;;;;;;;;;;;;;;6.98;100.00;100885.56;5037433;28;19987;-84
2022/12/17 15:15:57;;;;;;;;;;;;;;;6.93;100.00;100890.38;5017410;28;19987;-85
2022/12/17 15:18:23;;;;;;;;;;;;;;;6.59;100.00;100887.13;5008319;28;19921;-85
2022/12/17 15:20:48;;;;;;;;;;;;;;;6.65;100.00;100896.31;5007052;28;19976;-85
2022/12/17 15:23:18;;;;;;;;;;;;;;;6.68;100.00;100888.97;5032218;28;19982;-85
2022/12/17 15:25:44;;;;;;;;;;;;;;;6.56;100.00;100891.81;5037419;28;20385;-86
2022/12/17 15:28:10;;;;;;;;;;;;;;;6.58;100.00;100905.66;5035922;28;20404;-83
2022/12/17 15:30:36;;;;;;;;;;;;;;;6.57;100.00;100907.47;5012428;28;20014;-83
2022/12/17 15:33:02;;;;;;;;;;;;;;;6.58;100.00;100913.56;5015048;28;19925;-86
2022/12/17 15:35:28;;;;;;;;;;;;;;;6.63;100.00;100914.84;5016919;28;19964;-84
2022/12/17 15:37:53;;;;;;;;;;;;;;;6.60;100.00;100915.09;5015572;28;20337;-86
2022/12/17 15:40:18;;;;;;;;;;;;;;;6.57;100.00;100925.91;5017638;28;20012;-86
2022/12/17 15:45:29;;;;;;;;;;;;;;;6.66;100.00;100938.28;4999086;28;19930;-88
2022/12/17 15:47:54;;;;;;;;;;;;;;;6.64;100.00;100934.13;5019857;28;19967;-84
2022/12/17 15:50:20;;;;;;;;;;;;;;;6.49;100.00;100938.88;5034696;28;19917;-87
2022/12/17 15:52:45;;;;;;;;;;;;;;;6.54;100.00;100941.94;5036120;28;19928;-86
2022/12/17 15:55:15;;;;;;;;;;;;;;;6.61;100.00;100948.38;5035106;28;19917;-84
2022/12/17 15:57:43;;;;;;;;;;;;;;;6.62;100.00;100955.34;5013466;28;19953;-85
2022/12/17 16:00:09;;;;;;;;;;;;;;;6.59;100.00;100960.00;5021156;28;20388;-83
2022/12/17 16:02:35;;;;;;;;;;;;;;;6.59;100.00;100955.59;5015435;28;20294;-83
2022/12/17 16:05:03;;;;;;;;;;;;;;;6.54;100.00;100963.00;5015685;28;19928;-86
2022/12/17 16:07:29;;;;;;;;;;;;;;;6.40;100.00;100975.63;5016282;28;20305;-85
2022/12/17 16:09:54;;;;;;;;;;;;;;;6.40;100.00;100981.72;4998634;28;19923;-86
2022/12/17 16:12:23;;;;;;;;;;;;;;;6.40;100.00;100987.00;4998167;28;19976;-89
2022/12/17 16:14:48;;;;;;;;;;;;;;;6.40;100.00;100983.50;5015465;28;19940;-86
2022/12/17 16:17:14;;;;;;;;;;;;;;;6.31;100.00;100990.38;5032046;28;19921;-88
2022/12/17 16:19:39;;;;;;;;;;;;;;;6.30;100.00;100991.31;5035263;28;19995;-87
2022/12/17 16:22:04;;;;;;;;;;;;;;;6.42;100.00;100995.63;5034522;28;19948;-87
2022/12/17 16:24:30;;;;;;;;;;;;;;;6.36;100.00;100996.13;5035103;28;19921;-85
2022/12/17 16:26:55;;;;;;;;;;;;;;;6.43;100.00;101001.72;5033706;28;19921;-85
2022/12/17 16:29:21;;;;;;;;;;;;;;;6.57;100.00;101004.91;5015102;28;20263;-84
2022/12/17 16:31:47;;;;;;;;;;;;;;;6.44;100.00;101012.13;4999608;28;19925;-84
2022/12/17 16:34:13;;;;;;;;;;;;;;;6.53;100.00;101018.44;5020253;28;19964;-87
2022/12/17 16:36:38;;;;;;;;;;;;;;;6.71;100.00;101006.41;5038524;28;19928;-86
2022/12/17 16:39:04;;;;;;;;;;;;;;;6.75;100.00;101021.84;5035131;28;19929;-87
2022/12/17 16:41:31;;;;;;;;;;;;;;;6.83;100.00;101025.66;4998436;28;19929;-87
2022/12/17 16:43:56;;;;;;;;;;;;;;;6.78;100.00;101033.09;5015079;28;19933;-86
2022/12/17 16:46:36;;;;;;;;;;;;;;;6.72;100.00;101032.63;4999294;28;19922;-85
2022/12/17 16:49:04;;;;;;;;;;;;;;;6.78;100.00;101043.63;5018151;28;19921;-85
2022/12/17 16:51:33;;;;;;;;;;;;;;;6.70;100.00;101042.44;5012718;28;19933;-88
2022/12/17 16:54:02;;;;;;;;;;;;;;;6.76;100.00;101041.94;5034324;28;19913;-84
2022/12/17 16:56:28;;;;;;;;;;;;;;;6.72;100.00;101044.97;5030500;28;19905;-83
2022/12/17 16:58:53;;;;;;;;;;;;;;;6.69;100.00;101048.66;5033723;28;19936;-83
2022/12/17 17:01:20;;;;;;;;;;;;;;;6.70;100.00;101052.97;5016501;28;19944;-86
2022/12/17 17:04:05;;;;;;;;;;;;;;;6.51;100.00;101058.06;5008626;28;19992;-85
2022/12/17 17:06:31;;;;;;;;;;;;;;;6.29;100.00;101063.38;4985590;28;19922;-87
2022/12/17 17:08:57;;;;;;;;;;;;;;;5.97;100.00;101059.78;5015715;28;19927;-91
2022/12/17 17:11:23;;;;;;;;;;;;;;;5.72;100.00;101063.44;4983067;28;19927;-90
2022/12/17 17:13:50;;;;;;;;;;;;;;;5.53;100.00;101071.06;4998501;28;19932;-89
2022/12/17 17:16:20;;;;;;;;;;;;;;;5.42;100.00;101081.53;5022452;28;20025;-88
2022/12/17 17:18:46;;;;;;;;;;;;;;;5.44;100.00;101077.84;5001092;28;19921;-85
2022/12/17 17:21:17;;;;;;;;;;;;;;;5.52;100.00;101072.84;5017981;28;19921;-86
2022/12/17 17:23:50;;;;;;;;;;;;;;;5.66;100.00;101085.81;5035922;28;19921;-87
2022/12/17 17:26:16;;;;;;;;;;;;;;;5.63;100.00;101091.25;5046877;28;19921;-86
2022/12/17 17:28:46;;;;;;;;;;;;;;;5.53;100.00;101100.00;5025721;28;19921;-88
2022/12/17 17:31:21;;;;;;;;;;;;;;;5.56;100.00;101099.75;5035741;28;20290;-89
2022/12/17 17:33:55;;;;;;;;;;;;;;;5.52;100.00;101107.03;5004087;28;19933;-89
2022/12/17 17:36:22;;;;;;;;;;;;;;;5.56;100.00;101108.47;5016976;28;19992;-84
2022/12/17 17:38:49;;;;;;;;;;;;;;;5.48;100.00;101105.59;5038434;28;19965;-87
2022/12/17 17:41:16;;;;;;;;;;;;;;;5.50;100.00;101101.03;5040453;28;19917;-88
2022/12/17 17:43:41;;;;;;;;;;;;;;;5.66;100.00;101109.47;5013088;28;19932;-87
2022/12/17 17:46:10;;;;;;;;;;;;;;;5.94;100.00;101110.84;5033504;28;19921;-87
2022/12/17 17:48:35;;;;;;;;;;;;;;;6.06;100.00;101117.81;5035123;28;19918;-86
2022/12/17 17:51:03;;;;;;;;;;;;;;;6.21;100.00;101110.50;5032707;28;19928;-85
2022/12/17 17:53:28;;;;;;;;;;;;;;;6.18;100.00;101116.00;5016832;28;19933;-88
2022/12/17 17:55:54;;;;;;;;;;;;;;;6.35;100.00;101120.78;5009083;28;19921;-87
2022/12/17 17:58:22;;;;;;;;;;;;;;;6.41;100.00;101124.72;5011611;28;19933;-88
2022/12/17 18:00:48;;;;;;;;;;;;;;;5.79;100.00;101129.56;5021716;28;20020;-86
2022/12/17 18:03:14;;;;;;;;;;;;;;;5.50;100.00;101122.06;5016516;28;20350;-84
2022/12/17 18:05:43;;;;;;;;;;;;;;;5.57;100.00;101141.69;5039836;28;19967;-87
2022/12/17 18:08:13;;;;;;;;;;;;;;;5.34;100.00;101142.56;5020382;28;19917;-88
2022/12/17 18:10:42;;;;;;;;;;;;;;;5.15;100.00;101144.88;5004718;28;19921;-91
2022/12/17 18:16:00;;;;;;;;;;;;;;;5.02;100.00;101146.72;5016715;28;20358;-87
2022/12/17 18:18:26;;;;;;;;;;;;;;;5.02;100.00;101149.34;5030524;28;19968;-88
2022/12/17 18:21:16;;;;;;;;;;;;;;;5.04;100.00;101155.31;5030942;28;19921;-89
2022/12/17 18:23:42;;;;;;;;;;;;;;;5.22;100.00;101164.50;5025302;28;19930;-87
2022/12/17 18:26:19;;;;;;;;;;;;;;;5.24;100.00;101159.97;5028269;28;19917;-87
2022/12/17 18:28:48;;;;;;;;;;;;;;;5.12;100.00;101158.22;5022572;28;19921;-88
2022/12/17 18:31:24;;;;;;;;;;;;;;;5.07;100.00;101155.13;5013042;28;19940;-88
2022/12/17 18:33:51;;;;;;;;;;;;;;;5.21;100.00;101170.69;5037822;28;19931;-87
2022/12/17 18:36:30;;;;;;;;;;;;;;;5.14;100.00;101170.31;5025697;28;19917;-89
2022/12/17 18:38:57;;;;;;;;;;;;;;;5.22;100.00;101169.75;5025875;28;20574;-87
2022/12/17 18:44:12;;;;;;;;;;;;;;;5.59;100.00;101175.78;5026714;28;19951;-87
2022/12/17 18:46:56;;;;;;;;;;;;;;;5.76;100.00;101182.41;5026210;28;19932;-89
2022/12/17 18:49:25;;;;;;;;;;;;;;;5.50;100.00;101179.09;5026910;28;19921;-89
2022/12/17 18:51:51;;;;;;;;;;;;;;;5.41;100.00;101180.59;5051540;22;19965;-86
2022/12/17 18:54:25;;;;;;;;;;;;;;;5.35;100.00;101181.03;5012458;28;19925;-88
2022/12/17 18:56:59;;;;;;;;;;;;;;;5.48;100.00;101180.97;5034666;28;19922;-89
2022/12/17 18:59:26;;;;;;;;;;;;;;;5.44;100.00;101184.78;4991606;28;20322;-88
2022/12/17 19:01:52;;;;;;;;;;;;;;;5.32;100.00;101196.19;5018456;28;19922;-87
2022/12/17 19:09:50;;;;;;;;;;;;;;;5.33;100.00;101214.50;5091226;22;19925;-86
2022/12/17 19:12:25;;;;;;;;;;;;;;;5.26;100.00;101215.88;5022993;28;19992;-88
2022/12/17 19:14:50;;;;;;;;;;;;;;;5.26;100.00;101229.03;5003454;28;20376;-86
2022/12/17 19:17:16;;;;;;;;;;;;;;;5.24;100.00;101241.41;5032703;28;19957;-83
2022/12/17 19:19:41;;;;;;;;;;;;;;;5.35;100.00;101254.63;5034332;28;19989;-86
2022/12/17 19:22:07;;;;;;;;;;;;;;;5.24;100.00;101254.56;5037573;28;20017;-82
2022/12/17 19:24:32;;;;;;;;;;;;;;;5.19;100.00;101254.91;5048009;28;19929;-84
2022/12/17 19:26:58;;;;;;;;;;;;;;;5.03;100.00;101266.63;5045049;28;19921;-88
2022/12/17 19:29:23;;;;;;;;;;;;;;;5.00;100.00;101264.22;5022935;28;19921;-85
2022/12/17 19:31:49;;;;;;;;;;;;;;;5.02;100.00;101268.41;5026710;28;19925;-85
2022/12/17 19:34:15;;;;;;;;;;;;;;;5.00;100.00;101278.19;5005449;28;19960;-84
2022/12/17 19:36:41;;;;;;;;;;;;;;;5.04;100.00;101284.03;5020823;28;19932;-84
2022/12/17 19:39:09;;;;;;;;;;;;;;;5.26;100.00;101283.38;5043672;28;20297;-86
2022/12/17 19:41:35;;;;;;;;;;;;;;;5.12;100.00;101284.34;5040199;28;19943;-81
2022/12/17 19:44:10;;;;;;;;;;;;;;;5.08;100.00;101288.97;5036023;28;19925;-89
2022/12/17 19:46:40;;;;;;;;;;;;;;;5.14;100.00;101296.41;5043174;28;19921;-85
2022/12/17 19:49:07;;;;;;;;;;;;;;;5.30;100.00;101298.81;5034795;28;19934;-84
2022/12/17 19:51:37;;;;;;;;;;;;;;;5.33;100.00;101298.59;5037611;28;19921;-84
2022/12/17 19:54:03;;;;;;;;;;;;;;;5.63;100.00;101306.88;5047936;28;19913;-83
2022/12/17 19:56:32;;;;;;;;;;;;;;;5.67;100.00;101318.88;5028948;28;19944;-89
2022/12/17 19:59:00;;;;;;;;;;;;;;;5.86;100.00;101320.19;5040619;28;19905;-87
2022/12/17 20:01:38;;;;;;;;;;;;;;;5.96;100.00;101323.84;5041994;28;19985;-87
2022/12/17 20:04:04;;;;;;;;;;;;;;;6.04;100.00;101321.47;5023669;28;19928;-85
2022/12/17 20:06:30;;;;;;;;;;;;;;;6.32;100.00;101321.09;5044112;28;19921;-85
2022/12/17 20:09:00;;;;;;;;;;;;;;;6.25;100.00;101319.88;5019883;28;19929;-86
2022/12/17 20:11:31;;;;;;;;;;;;;;;6.01;100.00;101322.53;5043324;28;19960;-85
2022/12/17 20:13:58;;;;;;;;;;;;;;;6.03;100.00;101330.31;5042988;28;19921;-86
2022/12/17 20:16:26;;;;;;;;;;;;;;;5.94;100.00;101330.97;5028888;28;19952;-85
2022/12/17 20:18:52;;;;;;;;;;;;;;;6.02;100.00;101333.91;5023975;28;20267;-86
2022/12/17 20:21:17;;;;;;;;;;;;;;;6.17;100.00;101335.38;5039429;28;19921;-88
2022/12/17 20:23:46;;;;;;;;;;;;;;;6.02;100.00;101339.16;5037339;28;19921;-82
2022/12/17 20:26:11;;;;;;;;;;;;;;;6.21;100.00;101344.75;5036898;28;20019;-84
2022/12/17 20:28:37;;;;;;;;;;;;;;;5.95;100.00;101345.81;5004470;28;19968;-89
2022/12/17 20:31:03;;;;;;;;;;;;;;;5.75;100.00;101352.50;5037201;28;19956;-84
2022/12/17 20:33:28;;;;;;;;;;;;;;;5.65;100.00;101351.47;5036811;28;20285;-85
2022/12/17 20:35:55;;;;;;;;;;;;;;;5.90;100.00;101356.66;5036453;28;19967;-85
2022/12/17 20:38:21;;;;;;;;;;;;;;;6.02;100.00;101360.22;5036047;28;19917;-86
2022/12/17 20:40:47;;;;;;;;;;;;;;;6.02;100.00;101354.94;5002962;28;19921;-85
2022/12/17 20:43:12;;;;;;;;;;;;;;;5.80;100.00;101360.06;5018873;28;19920;-86
2022/12/17 20:45:38;;;;;;;;;;;;;;;6.03;100.00;101372.44;5037527;28;19925;-87
2022/12/17 20:48:03;;;;;;;;;;;;;;;5.87;100.00;101363.94;5040895;28;20014;-87
2022/12/17 20:50:29;;;;;;;;;;;;;;;5.60;100.00;101372.84;5038360;28;19918;-85
2022/12/17 20:52:54;;;;;;;;;;;;;;;5.45;100.00;101373.09;5038128;28;20444;-87
2022/12/17 20:55:19;;;;;;;;;;;;;;;5.50;100.00;101379.69;5020800;28;19917;-88
2022/12/17 20:57:45;;;;;;;;;;;;;;;5.52;100.00;101385.72;5038019;28;19929;-88
2022/12/17 21:00:11;;;;;;;;;;;;;;;5.37;100.00;101386.78;5003826;28;19932;-87
2022/12/17 21:02:36;;;;;;;;;;;;;;;5.37;100.00;101389.41;5019453;28;20406;-87
2022/12/17 21:05:03;;;;;;;;;;;;;;;5.64;100.00;101391.88;5019203;28;19951;-87
2022/12/17 21:07:31;;;;;;;;;;;;;;;5.70;100.00;101402.78;5040126;28;19928;-86
2022/12/17 21:09:59;;;;;;;;;;;;;;;5.87;100.00;101404.25;5037996;28;19960;-85
2022/12/17 21:13:27;;;;;;;;;;;;;;;5.76;100.00;101408.59;5018690;28;19976;-84
2022/12/17 21:15:10;;;;;;;;;;;;;;;5.82;100.00;101410.78;5046979;28;19948;-84
2022/12/17 21:17:39;;;;;;;;;;;;;;;5.76;100.00;101425.22;5044838;28;19921;-86
2022/12/17 21:20:04;;;;;;;;;;;;;;;5.55;100.00;101432.81;5021528;28;19928;-88
2022/12/17 21:22:30;;;;;;;;;;;;;;;5.37;100.00;101441.97;5023100;28;19921;-85
2022/12/17 21:24:55;;;;;;;;;;;;;;;5.17;100.00;101445.97;5007263;28;20412;-84
2022/12/17 21:27:21;;;;;;;;;;;;;;;5.24;100.00;101441.13;5040611;28;20019;-85
2022/12/17 21:29:47;;;;;;;;;;;;;;;5.15;100.00;101442.63;5023335;28;19921;-86
2022/12/17 21:32:12;;;;;;;;;;;;;;;5.26;100.00;101444.53;5006611;28;20400;-88
2022/12/17 21:34:38;;;;;;;;;;;;;;;5.25;100.00;101448.09;5023315;28;19925;-83
2022/12/17 21:37:03;;;;;;;;;;;;;;;5.18;100.00;101455.53;5040927;28;19966;-87
2022/12/17 21:39:29;;;;;;;;;;;;;;;5.21;100.00;101454.50;5040991;28;19921;-85
2022/12/17 21:44:38;;;;;;;;;;;;;;;5.17;100.00;101453.84;5039892;28;19979;-84
2022/12/17 21:47:07;;;;;;;;;;;;;;;5.11;100.00;101461.31;5021547;28;19917;-85
2022/12/17 21:49:32;;;;;;;;;;;;;;;5.23;100.00;101463.13;5039861;28;19937;-83
2022/12/17 21:52:00;;;;;;;;;;;;;;;5.05;100.00;101459.97;5040909;28;20480;-86
2022/12/17 21:54:25;;;;;;;;;;;;;;;5.02;100.00;101470.66;5044834;28;19925;-81
2022/12/17 21:56:50;;;;;;;;;;;;;;;5.28;100.00;101476.78;5044162;28;20484;-84
2022/12/17 21:59:16;;;;;;;;;;;;;;;5.15;100.00;101494.31;5044142;28;19928;-86
2022/12/17 22:01:41;;;;;;;;;;;;;;;5.13;100.00;101485.72;5024715;28;19921;-83
2022/12/17 22:04:06;;;;;;;;;;;;;;;4.83;100.00;101498.28;5039774;28;20012;-85
2022/12/17 22:06:32;;;;;;;;;;;;;;;4.76;100.00;101497.84;5038702;28;19928;-84
2022/12/17 22:08:58;;;;;;;;;;;;;;;4.69;100.00;101502.66;5038885;28;19928;-86
2022/12/17 22:11:25;;;;;;;;;;;;;;;4.65;100.00;101503.78;5020887;28;19955;-85
2022/12/17 22:14:10;;;;;;;;;;;;;;;4.57;100.00;101506.06;5038578;28;19975;-84
2022/12/17 22:16:45;;;;;;;;;;;;;;;4.43;100.00;101511.38;5037872;28;19928;-82
2022/12/17 22:19:12;;;;;;;;;;;;;;;4.31;100.00;101512.13;5020263;28;19971;-85
2022/12/17 22:21:39;;;;;;;;;;;;;;;4.11;100.00;101525.69;5038219;28;19921;-85
2022/12/17 22:24:05;;;;;;;;;;;;;;;4.02;100.00;101526.25;5036939;28;20349;-84
2022/12/17 22:26:30;;;;;;;;;;;;;;;4.21;100.00;101524.16;5036821;28;19963;-83
2022/12/17 22:28:56;;;;;;;;;;;;;;;4.13;100.00;101524.66;5038129;28;19921;-87
2022/12/17 22:34:06;;;;;;;;;;;;;;;4.09;100.00;101535.44;5019708;28;19928;-82
2022/12/17 22:36:33;;;;;;;;;;;;;;;4.02;100.00;101536.75;5037700;28;19963;-83
2022/12/17 22:39:04;;;;;;;;;;;;;;;3.93;100.00;101527.69;5020946;28;20015;-85
2022/12/17 22:44:13;;;;;;;;;;;;;;;4.25;100.00;101532.69;5040664;28;19943;-86
2022/12/17 22:46:39;;;;;;;;;;;;;;;4.48;100.00;101534.69;5029179;28;19917;-84
2022/12/17 22:49:04;;;;;;;;;;;;;;;4.69;100.00;101539.41;5056397;28;19916;-81
2022/12/17 22:51:29;;;;;;;;;;;;;;;4.85;100.00;101533.13;5042072;28;19993;-83
2022/12/17 22:53:55;;;;;;;;;;;;;;;4.71;100.00;101535.84;5026542;28;19956;-86
2022/12/17 22:56:21;;;;;;;;;;;;;;;4.85;100.00;101546.28;5038898;28;19917;-87
2022/12/17 22:58:47;;;;;;;;;;;;;;;4.85;100.00;101543.66;5038598;28;20259;-87
2022/12/17 23:01:12;;;;;;;;;;;;;;;4.93;100.00;101544.00;5020188;28;19917;-85
2022/12/17 23:03:38;;;;;;;;;;;;;;;5.06;100.00;101542.25;5038255;28;19921;-85
2022/12/17 23:06:06;;;;;;;;;;;;;;;4.94;100.00;101556.19;5037565;28;19921;-84
2022/12/17 23:08:32;;;;;;;;;;;;;;;4.72;100.00;101558.53;5020478;28;19925;-85
2022/12/17 23:10:57;;;;;;;;;;;;;;;4.89;100.00;101560.91;5037167;28;19921;-84
2022/12/17 23:13:22;;;;;;;;;;;;;;;4.95;100.00;101565.75;5036988;28;20297;-84
2022/12/17 23:15:49;;;;;;;;;;;;;;;4.71;100.00;101567.34;5036823;28;19921;-83
2022/12/17 23:18:15;;;;;;;;;;;;;;;4.82;100.00;101567.50;5037684;28;20300;-84
2022/12/17 23:20:40;;;;;;;;;;;;;;;4.72;100.00;101563.78;5019008;28;19928;-84
2022/12/17 23:23:05;;;;;;;;;;;;;;;4.99;100.00;101572.50;5037502;28;19964;-85
2022/12/17 23:25:34;;;;;;;;;;;;;;;5.11;100.00;101571.66;5037319;28;20343;-83
2022/12/17 23:27:59;;;;;;;;;;;;;;;5.17;100.00;101574.72;5002802;28;19971;-84
2022/12/17 23:30:25;;;;;;;;;;;;;;;5.02;100.00;101578.38;5037545;28;20354;-86
2022/12/17 23:32:50;;;;;;;;;;;;;;;5.17;100.00;101585.25;5037292;28;20019;-83
2022/12/17 23:35:16;;;;;;;;;;;;;;;5.25;100.00;101583.91;5038067;28;19921;-83
2022/12/17 23:37:41;;;;;;;;;;;;;;;5.10;100.00;101586.59;5021065;28;19983;-83
2022/12/17 23:40:08;;;;;;;;;;;;;;;4.89;100.00;101592.41;5038529;28;19931;-82
2022/12/17 23:42:33;;;;;;;;;;;;;;;4.60;100.00;101592.53;5038474;28;20377;-83
2022/12/17 23:44:59;;;;;;;;;;;;;;;4.60;100.00;101591.69;5038358;28;19932;-84
2022/12/17 23:47:24;;;;;;;;;;;;;;;4.51;100.00;101584.34;5019727;28;19921;-83
2022/12/17 23:49:50;;;;;;;;;;;;;;;4.47;100.00;101580.28;5038636;28;20137;-82
2022/12/17 23:52:15;;;;;;;;;;;;;;;4.57;100.00;101582.19;5038209;28;20278;-84
2022/12/17 23:54:40;;;;;;;;;;;;;;;4.73;100.00;101591.72;5020103;28;19964;-81
2022/12/17 23:57:06;;;;;;;;;;;;;;;4.87;100.00;101594.31;5036691;28;19974;-85
2022/12/17 23:59:32;;;;;;;;;;;;;;;4.80;100.00;101593.03;5020652;28;19979;-84
